sensor_id;sensor_type;location;lat;lon;timestamp;pressure;altitude;pressure_sealevel;temperature;humidity
45040;BME280;30778;53.574;7.770;2023-03-21T00:00:30;101503.03;;;6.98;58.89
45040;BME280;30778;53.574;7.770;2023-03-21T00:02:56;101497.34;;;6.71;59.71
45040;BME280;30778;53.574;7.770;2023-03-21T00:05:22;101494.53;;;6.86;59.36
45040;BME280;30778;53.574;7.770;2023-03-21T00:07:47;101497.16;;;6.86;59.12
45040;BME280;30778;53.574;7.770;2023-03-21T00:10:13;101493.03;;;6.70;59.89
45040;BME280;30778;53.574;7.770;2023-03-21T00:12:38;101495.25;;;6.96;59.04
45040;BME280;30778;53.574;7.770;2023-03-21T00:15:08;101498.63;;;7.01;58.78
45040;BME280;30778;53.574;7.770;2023-03-21T00:17:35;101489.16;;;6.99;58.96
45040;BME280;30778;53.574;7.770;2023-03-21T00:20:02;101484.94;;;6.91;59.29
45040;BME280;30778;53.574;7.770;2023-03-21T00:22:33;101486.78;;;6.83;59.50
45040;BME280;30778;53.574;7.770;2023-03-21T00:24:59;101480.59;;;6.28;60.93
45040;BME280;30778;53.574;7.770;2023-03-21T00:27:25;101486.84;;;6.80;59.91
45040;BME280;30778;53.574;7.770;2023-03-21T00:29:53;101484.38;;;6.71;59.91
45040;BME280;30778;53.574;7.770;2023-03-21T00:32:21;101481.00;;;6.63;60.22
45040;BME280;30778;53.574;7.770;2023-03-21T00:34:47;101474.91;;;6.65;60.13
45040;BME280;30778;53.574;7.770;2023-03-21T00:37:14;101472.78;;;6.94;59.39
45040;BME280;30778;53.574;7.770;2023-03-21T00:39:44;101463.78;;;7.15;58.90
45040;BME280;30778;53.574;7.770;2023-03-21T00:42:16;101458.84;;;6.98;59.39
45040;BME280;30778;53.574;7.770;2023-03-21T00:44:42;101461.28;;;6.49;60.23
45040;BME280;30778;53.574;7.770;2023-03-21T00:47:11;101468.56;;;6.86;59.51
45040;BME280;30778;53.574;7.770;2023-03-21T00:49:36;101463.31;;;6.89;59.80
45040;BME280;30778;53.574;7.770;2023-03-21T00:52:04;101458.72;;;7.07;59.06
45040;BME280;30778;53.574;7.770;2023-03-21T00:54:34;101454.22;;;7.17;58.88
45040;BME280;30778;53.574;7.770;2023-03-21T00:57:00;101458.47;;;7.21;58.61
45040;BME280;30778;53.574;7.770;2023-03-21T00:59:29;101452.38;;;7.22;58.74
45040;BME280;30778;53.574;7.770;2023-03-21T01:01:54;101456.63;;;6.73;59.78
45040;BME280;30778;53.574;7.770;2023-03-21T01:04:21;101448.28;;;6.51;60.32
45040;BME280;30778;53.574;7.770;2023-03-21T01:06:52;101449.53;;;6.83;59.85
45040;BME280;30778;53.574;7.770;2023-03-21T01:09:21;101452.53;;;7.14;58.80
45040;BME280;30778;53.574;7.770;2023-03-21T01:11:48;101443.03;;;6.53;60.33
45040;BME280;30778;53.574;7.770;2023-03-21T01:14:15;101440.91;;;6.82;60.21
45040;BME280;30778;53.574;7.770;2023-03-21T01:16:42;101434.72;;;6.88;59.69
45040;BME280;30778;53.574;7.770;2023-03-21T01:19:09;101435.66;;;6.20;61.89
45040;BME280;30778;53.574;7.770;2023-03-21T01:21:36;101428.69;;;6.87;59.93
45040;BME280;30778;53.574;7.770;2023-03-21T01:24:01;101429.38;;;6.99;59.34
45040;BME280;30778;53.574;7.770;2023-03-21T01:26:27;101430.13;;;7.07;59.13
45040;BME280;30778;53.574;7.770;2023-03-21T01:28:53;101425.78;;;7.06;58.97
45040;BME280;30778;53.574;7.770;2023-03-21T01:31:19;101423.16;;;6.53;60.31
45040;BME280;30778;53.574;7.770;2023-03-21T01:33:45;101418.09;;;6.41;60.84
45040;BME280;30778;53.574;7.770;2023-03-21T01:36:16;101422.53;;;6.36;61.38
45040;BME280;30778;53.574;7.770;2023-03-21T01:38:42;101419.09;;;6.34;61.60
45040;BME280;30778;53.574;7.770;2023-03-21T01:41:27;101421.72;;;6.89;59.73
45040;BME280;30778;53.574;7.770;2023-03-21T01:43:53;101420.56;;;6.52;61.22
45040;BME280;30778;53.574;7.770;2023-03-21T01:49:11;101419.03;;;6.96;60.09
45040;BME280;30778;53.574;7.770;2023-03-21T01:51:43;101413.28;;;6.75;60.23
45040;BME280;30778;53.574;7.770;2023-03-21T01:54:14;101405.38;;;6.81;60.21
45040;BME280;30778;53.574;7.770;2023-03-21T01:56:42;101408.75;;;6.26;62.19
45040;BME280;30778;53.574;7.770;2023-03-21T01:59:19;101408.44;;;6.50;61.24
45040;BME280;30778;53.574;7.770;2023-03-21T02:02:06;101406.94;;;6.34;61.76
45040;BME280;30778;53.574;7.770;2023-03-21T02:04:39;101405.22;;;6.92;60.18
45040;BME280;30778;53.574;7.770;2023-03-21T02:07:23;101401.00;;;6.85;59.81
45040;BME280;30778;53.574;7.770;2023-03-21T02:09:53;101397.66;;;6.78;60.45
45040;BME280;30778;53.574;7.770;2023-03-21T02:12:22;101397.41;;;6.94;60.04
45040;BME280;30778;53.574;7.770;2023-03-21T02:14:48;101393.06;;;6.93;59.66
45040;BME280;30778;53.574;7.770;2023-03-21T02:17:55;101394.16;;;6.81;60.29
45040;BME280;30778;53.574;7.770;2023-03-21T02:23:26;101386.38;;;6.79;60.32
45040;BME280;30778;53.574;7.770;2023-03-21T02:28:43;101388.94;;;6.82;60.39
45040;BME280;30778;53.574;7.770;2023-03-21T02:31:29;101382.84;;;6.83;60.21
45040;BME280;30778;53.574;7.770;2023-03-21T02:39:23;101384.00;;;6.64;61.00
45040;BME280;30778;53.574;7.770;2023-03-21T02:42:08;101379.25;;;6.92;60.56
45040;BME280;30778;53.574;7.770;2023-03-21T02:44:43;101376.31;;;7.12;59.56
45040;BME280;30778;53.574;7.770;2023-03-21T02:47:11;101366.91;;;7.03;59.71
45040;BME280;30778;53.574;7.770;2023-03-21T02:49:46;101368.50;;;7.12;59.76
45040;BME280;30778;53.574;7.770;2023-03-21T02:52:19;101374.38;;;6.70;61.14
45040;BME280;30778;53.574;7.770;2023-03-21T02:54:48;101365.63;;;6.78;60.28
45040;BME280;30778;53.574;7.770;2023-03-21T02:57:19;101366.41;;;6.24;62.32
45040;BME280;30778;53.574;7.770;2023-03-21T02:59:48;101371.44;;;6.94;60.19
45040;BME280;30778;53.574;7.770;2023-03-21T03:02:20;101374.53;;;6.61;61.42
45040;BME280;30778;53.574;7.770;2023-03-21T03:04:47;101369.66;;;6.96;60.13
45040;BME280;30778;53.574;7.770;2023-03-21T03:09:46;101364.31;;;7.05;60.18
45040;BME280;30778;53.574;7.770;2023-03-21T03:15:17;101369.44;;;7.08;60.08
45040;BME280;30778;53.574;7.770;2023-03-21T03:17:50;101371.53;;;6.87;60.77
45040;BME280;30778;53.574;7.770;2023-03-21T03:20:44;101368.78;;;6.39;62.38
45040;BME280;30778;53.574;7.770;2023-03-21T03:26:07;101364.41;;;6.97;60.29
45040;BME280;30778;53.574;7.770;2023-03-21T03:28:38;101362.72;;;6.95;60.51
45040;BME280;30778;53.574;7.770;2023-03-21T03:31:11;101357.94;;;7.20;59.59
45040;BME280;30778;53.574;7.770;2023-03-21T03:33:47;101361.00;;;7.43;59.27
45040;BME280;30778;53.574;7.770;2023-03-21T03:36:17;101359.78;;;7.16;59.54
45040;BME280;30778;53.574;7.770;2023-03-21T03:38:45;101349.78;;;7.40;58.93
45040;BME280;30778;53.574;7.770;2023-03-21T03:41:20;101358.94;;;6.61;61.51
45040;BME280;30778;53.574;7.770;2023-03-21T03:43:55;101351.34;;;7.02;60.10
45040;BME280;30778;53.574;7.770;2023-03-21T03:46:35;101351.66;;;6.83;60.63
45040;BME280;30778;53.574;7.770;2023-03-21T03:49:13;101346.66;;;7.22;59.71
45040;BME280;30778;53.574;7.770;2023-03-21T03:51:49;101353.84;;;7.08;60.30
45040;BME280;30778;53.574;7.770;2023-03-21T03:54:45;101351.56;;;7.38;59.63
45040;BME280;30778;53.574;7.770;2023-03-21T03:57:12;101348.78;;;7.00;60.41
45040;BME280;30778;53.574;7.770;2023-03-21T03:59:41;101346.03;;;7.08;60.13
45040;BME280;30778;53.574;7.770;2023-03-21T04:02:26;101341.28;;;7.31;59.72
45040;BME280;30778;53.574;7.770;2023-03-21T04:04:52;101336.09;;;7.31;59.59
45040;BME280;30778;53.574;7.770;2023-03-21T04:07:20;101336.03;;;6.86;61.22
45040;BME280;30778;53.574;7.770;2023-03-21T04:09:47;101335.44;;;7.20;60.26
45040;BME280;30778;53.574;7.770;2023-03-21T04:12:17;101334.72;;;7.12;60.28
45040;BME280;30778;53.574;7.770;2023-03-21T04:14:56;101334.47;;;7.24;60.37
45040;BME280;30778;53.574;7.770;2023-03-21T04:17:22;101339.97;;;7.09;60.95
45040;BME280;30778;53.574;7.770;2023-03-21T04:19:47;101338.59;;;7.36;59.64
45040;BME280;30778;53.574;7.770;2023-03-21T04:22:17;101330.00;;;7.32;59.69
45040;BME280;30778;53.574;7.770;2023-03-21T04:24:43;101333.63;;;7.24;60.14
45040;BME280;30778;53.574;7.770;2023-03-21T04:27:09;101328.22;;;7.33;59.96
45040;BME280;30778;53.574;7.770;2023-03-21T04:29:38;101325.50;;;7.41;59.87
45040;BME280;30778;53.574;7.770;2023-03-21T04:32:28;101323.47;;;7.10;60.56
45040;BME280;30778;53.574;7.770;2023-03-21T04:35:08;101323.84;;;7.37;60.18
45040;BME280;30778;53.574;7.770;2023-03-21T04:37:35;101316.97;;;7.34;59.91
45040;BME280;30778;53.574;7.770;2023-03-21T04:40:02;101323.09;;;7.31;60.25
45040;BME280;30778;53.574;7.770;2023-03-21T04:42:33;101316.59;;;6.58;62.56
45040;BME280;30778;53.574;7.770;2023-03-21T04:44:59;101313.84;;;7.15;60.71
45040;BME280;30778;53.574;7.770;2023-03-21T04:47:25;101316.06;;;6.88;61.53
45040;BME280;30778;53.574;7.770;2023-03-21T04:49:53;101310.72;;;6.98;61.72
45040;BME280;30778;53.574;7.770;2023-03-21T04:52:19;101307.00;;;7.11;61.32
45040;BME280;30778;53.574;7.770;2023-03-21T04:54:45;101299.06;;;7.19;60.96
45040;BME280;30778;53.574;7.770;2023-03-21T04:57:11;101300.53;;;7.32;60.31
45040;BME280;30778;53.574;7.770;2023-03-21T04:59:37;101297.31;;;7.19;61.04
45040;BME280;30778;53.574;7.770;2023-03-21T05:02:02;101295.59;;;6.70;62.46
45040;BME280;30778;53.574;7.770;2023-03-21T05:04:29;101293.63;;;6.84;62.30
45040;BME280;30778;53.574;7.770;2023-03-21T05:06:56;101300.09;;;6.60;63.07
45040;BME280;30778;53.574;7.770;2023-03-21T05:09:21;101292.06;;;6.74;62.39
45040;BME280;30778;53.574;7.770;2023-03-21T05:11:48;101291.69;;;6.96;62.07
45040;BME280;30778;53.574;7.770;2023-03-21T05:14:17;101294.47;;;6.86;62.14
45040;BME280;30778;53.574;7.770;2023-03-21T05:16:44;101290.34;;;7.20;61.00
45040;BME280;30778;53.574;7.770;2023-03-21T05:19:14;101298.31;;;7.12;61.00
45040;BME280;30778;53.574;7.770;2023-03-21T05:21:42;101293.59;;;7.31;60.55
45040;BME280;30778;53.574;7.770;2023-03-21T05:24:18;101289.97;;;6.95;61.46
45040;BME280;30778;53.574;7.770;2023-03-21T05:26:45;101286.66;;;6.86;61.91
45040;BME280;30778;53.574;7.770;2023-03-21T05:29:17;101298.88;;;6.81;61.65
45040;BME280;30778;53.574;7.770;2023-03-21T05:31:48;101295.41;;;6.82;61.98
45040;BME280;30778;53.574;7.770;2023-03-21T05:34:14;101293.91;;;6.69;62.79
45040;BME280;30778;53.574;7.770;2023-03-21T05:36:40;101294.09;;;6.57;63.02
45040;BME280;30778;53.574;7.770;2023-03-21T05:39:08;101288.81;;;7.11;61.51
45040;BME280;30778;53.574;7.770;2023-03-21T05:41:38;101291.81;;;6.88;61.51
45040;BME280;30778;53.574;7.770;2023-03-21T05:44:04;101290.38;;;6.72;62.22
45040;BME280;30778;53.574;7.770;2023-03-21T05:46:30;101288.72;;;6.66;62.64
45040;BME280;30778;53.574;7.770;2023-03-21T05:48:56;101285.91;;;7.26;61.01
45040;BME280;30778;53.574;7.770;2023-03-21T05:51:23;101284.47;;;7.10;60.82
45040;BME280;30778;53.574;7.770;2023-03-21T05:53:49;101286.31;;;7.50;60.09
45040;BME280;30778;53.574;7.770;2023-03-21T05:56:16;101281.47;;;6.86;61.91
45040;BME280;30778;53.574;7.770;2023-03-21T05:59:04;101277.81;;;6.95;62.03
45040;BME280;30778;53.574;7.770;2023-03-21T06:01:34;101284.09;;;7.31;60.74
45040;BME280;30778;53.574;7.770;2023-03-21T06:04:11;101280.56;;;6.87;61.46
45040;BME280;30778;53.574;7.770;2023-03-21T06:06:38;101281.03;;;7.09;61.20
45040;BME280;30778;53.574;7.770;2023-03-21T06:09:03;101283.28;;;7.28;61.03
45040;BME280;30778;53.574;7.770;2023-03-21T06:11:33;101283.78;;;7.47;59.87
45040;BME280;30778;53.574;7.770;2023-03-21T06:14:23;101285.78;;;7.32;60.69
45040;BME280;30778;53.574;7.770;2023-03-21T06:17:07;101285.84;;;7.29;60.38
45040;BME280;30778;53.574;7.770;2023-03-21T06:19:39;101279.81;;;6.82;62.17
45040;BME280;30778;53.574;7.770;2023-03-21T06:22:14;101282.16;;;6.96;61.71
45040;BME280;30778;53.574;7.770;2023-03-21T06:24:41;101285.31;;;7.57;60.03
45040;BME280;30778;53.574;7.770;2023-03-21T06:27:06;101281.69;;;7.21;61.10
45040;BME280;30778;53.574;7.770;2023-03-21T06:29:45;101279.19;;;7.16;61.36
45040;BME280;30778;53.574;7.770;2023-03-21T06:32:12;101279.09;;;7.19;61.56
45040;BME280;30778;53.574;7.770;2023-03-21T06:34:38;101279.91;;;7.66;60.02
45040;BME280;30778;53.574;7.770;2023-03-21T06:37:04;101276.50;;;7.21;61.41
45040;BME280;30778;53.574;7.770;2023-03-21T06:39:32;101272.88;;;7.28;61.16
45040;BME280;30778;53.574;7.770;2023-03-21T06:41:58;101284.25;;;6.76;62.39
45040;BME280;30778;53.574;7.770;2023-03-21T06:44:24;101280.34;;;7.45;61.10
45040;BME280;30778;53.574;7.770;2023-03-21T06:46:57;101271.91;;;7.33;60.81
45040;BME280;30778;53.574;7.770;2023-03-21T06:49:24;101272.19;;;6.72;62.65
45040;BME280;30778;53.574;7.770;2023-03-21T06:51:51;101273.72;;;6.82;62.27
45040;BME280;30778;53.574;7.770;2023-03-21T06:54:19;101276.72;;;7.52;60.27
45040;BME280;30778;53.574;7.770;2023-03-21T06:57:00;101274.47;;;7.35;60.82
45040;BME280;30778;53.574;7.770;2023-03-21T06:59:30;101279.41;;;7.49;60.36
45040;BME280;30778;53.574;7.770;2023-03-21T07:02:01;101284.19;;;7.25;61.24
45040;BME280;30778;53.574;7.770;2023-03-21T07:04:29;101278.97;;;7.70;59.91
45040;BME280;30778;53.574;7.770;2023-03-21T07:06:56;101279.41;;;7.49;60.50
45040;BME280;30778;53.574;7.770;2023-03-21T07:09:21;101282.03;;;7.02;61.62
45040;BME280;30778;53.574;7.770;2023-03-21T07:11:50;101282.63;;;7.62;60.18
45040;BME280;30778;53.574;7.770;2023-03-21T07:14:20;101284.72;;;6.98;61.66
45040;BME280;30778;53.574;7.770;2023-03-21T07:16:46;101286.69;;;6.83;61.96
45040;BME280;30778;53.574;7.770;2023-03-21T07:19:12;101277.50;;;7.59;59.96
45040;BME280;30778;53.574;7.770;2023-03-21T07:21:37;101281.19;;;7.45;59.96
45040;BME280;30778;53.574;7.770;2023-03-21T07:24:03;101282.25;;;6.91;61.86
45040;BME280;30778;53.574;7.770;2023-03-21T07:26:29;101286.31;;;7.05;61.75
45040;BME280;30778;53.574;7.770;2023-03-21T07:28:56;101285.44;;;7.06;61.64
45040;BME280;30778;53.574;7.770;2023-03-21T07:31:22;101287.50;;;7.33;60.57
45040;BME280;30778;53.574;7.770;2023-03-21T07:33:51;101285.78;;;7.32;60.82
45040;BME280;30778;53.574;7.770;2023-03-21T07:36:17;101288.81;;;7.56;60.02
45040;BME280;30778;53.574;7.770;2023-03-21T07:38:44;101293.63;;;6.84;62.05
45040;BME280;30778;53.574;7.770;2023-03-21T07:41:11;101298.13;;;7.66;59.84
45040;BME280;30778;53.574;7.770;2023-03-21T07:43:37;101277.44;;;7.15;61.34
45040;BME280;30778;53.574;7.770;2023-03-21T07:46:08;101287.88;;;6.67;62.61
45040;BME280;30778;53.574;7.770;2023-03-21T07:48:33;101282.16;;;7.40;60.53
45040;BME280;30778;53.574;7.770;2023-03-21T07:50:59;101290.47;;;7.60;60.17
45040;BME280;30778;53.574;7.770;2023-03-21T07:53:26;101285.28;;;7.60;59.78
45040;BME280;30778;53.574;7.770;2023-03-21T07:55:53;101288.13;;;7.87;58.84
45040;BME280;30778;53.574;7.770;2023-03-21T07:58:22;101283.00;;;6.97;61.91
45040;BME280;30778;53.574;7.770;2023-03-21T08:00:48;101283.25;;;6.84;62.52
45040;BME280;30778;53.574;7.770;2023-03-21T08:03:13;101279.53;;;6.98;61.73
45040;BME280;30778;53.574;7.770;2023-03-21T08:05:39;101285.53;;;7.00;61.73
45040;BME280;30778;53.574;7.770;2023-03-21T08:08:05;101283.97;;;7.80;59.56
45040;BME280;30778;53.574;7.770;2023-03-21T08:10:31;101288.53;;;7.70;59.46
45040;BME280;30778;53.574;7.770;2023-03-21T08:12:57;101288.38;;;7.32;61.17
45040;BME280;30778;53.574;7.770;2023-03-21T08:15:22;101280.16;;;7.54;60.16
45040;BME280;30778;53.574;7.770;2023-03-21T08:17:48;101280.69;;;7.26;60.94
45040;BME280;30778;53.574;7.770;2023-03-21T08:20:16;101276.66;;;7.57;60.18
45040;BME280;30778;53.574;7.770;2023-03-21T08:22:43;101279.41;;;7.49;60.37
45040;BME280;30778;53.574;7.770;2023-03-21T08:25:11;101271.50;;;7.08;61.80
45040;BME280;30778;53.574;7.770;2023-03-21T08:27:41;101266.34;;;7.92;59.65
45040;BME280;30778;53.574;7.770;2023-03-21T08:30:12;101276.56;;;7.18;61.23
45040;BME280;30778;53.574;7.770;2023-03-21T08:32:39;101270.19;;;7.31;61.20
45040;BME280;30778;53.574;7.770;2023-03-21T08:35:06;101269.75;;;7.10;61.54
45040;BME280;30778;53.574;7.770;2023-03-21T08:37:36;101275.09;;;7.88;60.27
45040;BME280;30778;53.574;7.770;2023-03-21T08:40:06;101266.94;;;7.21;61.68
45040;BME280;30778;53.574;7.770;2023-03-21T08:42:36;101264.25;;;7.69;60.81
45040;BME280;30778;53.574;7.770;2023-03-21T08:45:02;101262.28;;;7.81;60.09
45040;BME280;30778;53.574;7.770;2023-03-21T08:47:32;101266.63;;;7.80;60.31
45040;BME280;30778;53.574;7.770;2023-03-21T08:49:57;101261.56;;;7.72;60.57
45040;BME280;30778;53.574;7.770;2023-03-21T08:52:24;101257.00;;;7.42;61.17
45040;BME280;30778;53.574;7.770;2023-03-21T08:54:50;101265.91;;;7.73;60.94
45040;BME280;30778;53.574;7.770;2023-03-21T08:57:15;101261.72;;;8.05;59.89
45040;BME280;30778;53.574;7.770;2023-03-21T08:59:41;101266.97;;;8.02;60.35
45040;BME280;30778;53.574;7.770;2023-03-21T09:02:06;101256.28;;;7.77;60.49
45040;BME280;30778;53.574;7.770;2023-03-21T09:04:32;101260.81;;;8.06;60.19
45040;BME280;30778;53.574;7.770;2023-03-21T09:06:58;101262.91;;;8.28;59.13
45040;BME280;30778;53.574;7.770;2023-03-21T09:09:26;101256.53;;;7.21;61.63
45040;BME280;30778;53.574;7.770;2023-03-21T09:11:53;101264.78;;;7.42;61.17
45040;BME280;30778;53.574;7.770;2023-03-21T09:14:19;101265.06;;;7.29;61.36
45040;BME280;30778;53.574;7.770;2023-03-21T09:16:44;101253.09;;;8.03;59.70
45040;BME280;30778;53.574;7.770;2023-03-21T09:19:10;101257.19;;;7.74;60.39
45040;BME280;30778;53.574;7.770;2023-03-21T09:21:35;101250.03;;;6.99;62.26
45040;BME280;30778;53.574;7.770;2023-03-21T09:24:02;101252.41;;;7.53;60.70
45040;BME280;30778;53.574;7.770;2023-03-21T09:26:31;101255.31;;;7.39;61.18
45040;BME280;30778;53.574;7.770;2023-03-21T09:28:57;101253.25;;;8.31;59.29
45040;BME280;30778;53.574;7.770;2023-03-21T09:31:23;101256.63;;;8.01;59.18
45040;BME280;30778;53.574;7.770;2023-03-21T09:33:50;101259.09;;;7.66;60.67
45040;BME280;30778;53.574;7.770;2023-03-21T09:36:16;101251.34;;;7.65;60.89
45040;BME280;30778;53.574;7.770;2023-03-21T09:38:46;101254.25;;;7.49;61.45
45040;BME280;30778;53.574;7.770;2023-03-21T09:49:33;101243.97;;;7.84;59.95
45040;BME280;30778;53.574;7.770;2023-03-21T09:52:01;101242.72;;;8.00;59.78
45040;BME280;30778;53.574;7.770;2023-03-21T09:54:35;101254.94;;;7.98;59.67
45040;BME280;30778;53.574;7.770;2023-03-21T09:57:13;101241.03;;;7.99;60.03
45040;BME280;30778;53.574;7.770;2023-03-21T09:59:49;101243.88;;;7.46;61.14
45040;BME280;30778;53.574;7.770;2023-03-21T10:05:18;101243.88;;;7.46;61.23
45040;BME280;30778;53.574;7.770;2023-03-21T10:10:38;101246.16;;;8.02;60.49
45040;BME280;30778;53.574;7.770;2023-03-21T10:13:13;101241.47;;;7.81;60.84
45040;BME280;30778;53.574;7.770;2023-03-21T10:15:41;101237.72;;;8.63;59.02
45040;BME280;30778;53.574;7.770;2023-03-21T10:18:21;101242.50;;;7.73;60.35
45040;BME280;30778;53.574;7.770;2023-03-21T10:20:56;101234.78;;;8.42;59.09
45040;BME280;30778;53.574;7.770;2023-03-21T10:23:27;101238.50;;;7.14;61.75
45040;BME280;30778;53.574;7.770;2023-03-21T10:26:01;101233.13;;;7.23;61.95
45040;BME280;30778;53.574;7.770;2023-03-21T10:28:39;101236.31;;;7.78;60.84
45040;BME280;30778;53.574;7.770;2023-03-21T10:31:10;101229.31;;;7.80;60.69
45040;BME280;30778;53.574;7.770;2023-03-21T10:33:50;101231.47;;;8.00;60.28
45040;BME280;30778;53.574;7.770;2023-03-21T10:36:23;101226.13;;;8.06;59.93
45040;BME280;30778;53.574;7.770;2023-03-21T10:38:55;101229.81;;;7.58;60.94
45040;BME280;30778;53.574;7.770;2023-03-21T10:41:24;101226.09;;;7.68;60.87
45040;BME280;30778;53.574;7.770;2023-03-21T10:44:08;101219.94;;;8.11;59.76
45040;BME280;30778;53.574;7.770;2023-03-21T10:46:49;101219.06;;;7.73;60.58
45040;BME280;30778;53.574;7.770;2023-03-21T10:49:15;101224.47;;;7.22;61.64
45040;BME280;30778;53.574;7.770;2023-03-21T10:51:55;101214.81;;;7.27;61.95
45040;BME280;30778;53.574;7.770;2023-03-21T10:54:31;101212.31;;;7.23;61.44
45040;BME280;30778;53.574;7.770;2023-03-21T10:57:10;101214.97;;;7.62;61.30
45040;BME280;30778;53.574;7.770;2023-03-21T10:59:44;101215.88;;;7.17;61.56
45040;BME280;30778;53.574;7.770;2023-03-21T11:02:23;101204.47;;;7.66;60.44
45040;BME280;30778;53.574;7.770;2023-03-21T11:04:51;101203.31;;;7.80;60.50
45040;BME280;30778;53.574;7.770;2023-03-21T11:07:20;101205.31;;;8.40;58.69
45040;BME280;30778;53.574;7.770;2023-03-21T11:09:57;101206.81;;;7.79;60.47
45040;BME280;30778;53.574;7.770;2023-03-21T11:12:32;101201.13;;;7.19;61.03
45040;BME280;30778;53.574;7.770;2023-03-21T11:18:38;101200.16;;;7.23;61.47
45040;BME280;30778;53.574;7.770;2023-03-21T11:21:09;101198.19;;;7.36;61.00
45040;BME280;30778;53.574;7.770;2023-03-21T11:23:40;101196.34;;;7.40;61.32
45040;BME280;30778;53.574;7.770;2023-03-21T11:26:16;101193.94;;;7.72;60.37
45040;BME280;30778;53.574;7.770;2023-03-21T11:28:54;101180.56;;;7.49;60.58
45040;BME280;30778;53.574;7.770;2023-03-21T11:31:38;101190.78;;;7.58;60.57
45040;BME280;30778;53.574;7.770;2023-03-21T11:34:27;101185.13;;;7.78;59.92
45040;BME280;30778;53.574;7.770;2023-03-21T11:36:59;101192.66;;;7.50;60.20
45040;BME280;30778;53.574;7.770;2023-03-21T11:39:35;101181.34;;;7.51;60.46
45040;BME280;30778;53.574;7.770;2023-03-21T11:42:26;101188.75;;;7.30;60.54
45040;BME280;30778;53.574;7.770;2023-03-21T11:45:02;101177.25;;;6.55;61.39
45040;BME280;30778;53.574;7.770;2023-03-21T11:47:44;101180.03;;;6.91;60.75
45040;BME280;30778;53.574;7.770;2023-03-21T12:04:29;101174.97;;;6.85;61.44
45040;BME280;30778;53.574;7.770;2023-03-21T12:16:00;101161.44;;;7.89;59.60
45040;BME280;30778;53.574;7.770;2023-03-21T12:18:54;101157.19;;;6.62;61.89
45040;BME280;30778;53.574;7.770;2023-03-21T12:21:53;101156.09;;;7.17;60.52
45040;BME280;30778;53.574;7.770;2023-03-21T12:24:33;101151.09;;;7.08;60.94
45040;BME280;30778;53.574;7.770;2023-03-21T12:29:54;101147.34;;;7.62;59.62
45040;BME280;30778;53.574;7.770;2023-03-21T12:41:36;101140.41;;;7.22;59.87
45040;BME280;30778;53.574;7.770;2023-03-21T12:44:16;101134.63;;;7.48;59.49
45040;BME280;30778;53.574;7.770;2023-03-21T12:47:01;101129.59;;;8.13;58.18
45040;BME280;30778;53.574;7.770;2023-03-21T12:50:01;101130.59;;;7.73;58.46
45040;BME280;30778;53.574;7.770;2023-03-21T12:52:35;101127.38;;;7.62;58.48
45040;BME280;30778;53.574;7.770;2023-03-21T12:55:21;101118.78;;;7.60;58.12
45040;BME280;30778;53.574;7.770;2023-03-21T12:58:13;101110.41;;;8.50;56.39
45040;BME280;30778;53.574;7.770;2023-03-21T13:00:50;101123.59;;;8.44;56.80
45040;BME280;30778;53.574;7.770;2023-03-21T13:03:41;101109.31;;;9.18;55.35
45040;BME280;30778;53.574;7.770;2023-03-21T13:06:13;101112.72;;;8.28;55.18
45040;BME280;30778;53.574;7.770;2023-03-21T13:09:04;101103.78;;;9.01;54.33
45040;BME280;30778;53.574;7.770;2023-03-21T13:11:36;101110.72;;;9.30;54.72
45040;BME280;30778;53.574;7.770;2023-03-21T13:14:20;101102.69;;;9.63;53.17
45040;BME280;30778;53.574;7.770;2023-03-21T13:17:09;101098.28;;;9.93;52.58
45040;BME280;30778;53.574;7.770;2023-03-21T13:22:32;101101.91;;;9.05;53.00
45040;BME280;30778;53.574;7.770;2023-03-21T13:25:14;101093.25;;;9.32;53.22
45040;BME280;30778;53.574;7.770;2023-03-21T13:27:50;101096.06;;;9.81;51.92
45040;BME280;30778;53.574;7.770;2023-03-21T13:30:29;101087.34;;;8.97;53.91
45040;BME280;30778;53.574;7.770;2023-03-21T13:33:28;101083.09;;;8.32;53.98
45040;BME280;30778;53.574;7.770;2023-03-21T13:36:05;101078.88;;;8.60;53.65
45040;BME280;30778;53.574;7.770;2023-03-21T13:38:35;101067.53;;;9.48;51.95
45040;BME280;30778;53.574;7.770;2023-03-21T13:41:07;101072.31;;;9.62;51.59
45040;BME280;30778;53.574;7.770;2023-03-21T13:51:41;101049.75;;;9.05;53.58
45040;BME280;30778;53.574;7.770;2023-03-21T13:57:20;101040.38;;;8.71;54.77
45040;BME280;30778;53.574;7.770;2023-03-21T14:03:16;101036.78;;;8.75;55.34
45040;BME280;30778;53.574;7.770;2023-03-21T14:05:57;101033.53;;;9.50;53.11
45040;BME280;30778;53.574;7.770;2023-03-21T14:08:34;101036.88;;;9.55;52.71
45040;BME280;30778;53.574;7.770;2023-03-21T14:11:07;101041.06;;;9.06;54.44
45040;BME280;30778;53.574;7.770;2023-03-21T14:13:43;101033.03;;;9.12;53.53
45040;BME280;30778;53.574;7.770;2023-03-21T14:16:15;101036.53;;;8.83;54.44
45040;BME280;30778;53.574;7.770;2023-03-21T14:18:55;101039.09;;;8.84;55.01
45040;BME280;30778;53.574;7.770;2023-03-21T14:21:46;101042.19;;;8.67;56.09
45040;BME280;30778;53.574;7.770;2023-03-21T14:24:21;101030.69;;;9.31;54.08
45040;BME280;30778;53.574;7.770;2023-03-21T14:26:55;101029.06;;;9.28;53.70
45040;BME280;30778;53.574;7.770;2023-03-21T14:29:27;101030.28;;;8.88;54.04
45040;BME280;30778;53.574;7.770;2023-03-21T14:31:56;101026.13;;;9.11;53.95
45040;BME280;30778;53.574;7.770;2023-03-21T14:34:34;101026.47;;;9.53;54.05
45040;BME280;30778;53.574;7.770;2023-03-21T14:37:06;101023.53;;;9.37;53.92
45040;BME280;30778;53.574;7.770;2023-03-21T14:39:37;101025.56;;;8.71;54.69
45040;BME280;30778;53.574;7.770;2023-03-21T14:42:13;101010.47;;;8.83;54.92
45040;BME280;30778;53.574;7.770;2023-03-21T14:44:48;101011.31;;;9.11;54.52
45040;BME280;30778;53.574;7.770;2023-03-21T14:47:22;101010.31;;;8.87;54.96
45040;BME280;30778;53.574;7.770;2023-03-21T14:49:51;101004.41;;;9.10;53.77
45040;BME280;30778;53.574;7.770;2023-03-21T14:52:23;101000.56;;;8.64;54.27
45040;BME280;30778;53.574;7.770;2023-03-21T14:54:54;100998.00;;;8.63;55.05